sensor_id;sensor_type;location;lat;lon;timestamp;P1;durP1;ratioP1;P2;durP2;ratioP2
76795;SDS011;65745;50.278;18.192;2023-07-13T00:02:08;7.70;;;5.30;;
76795;SDS011;65745;50.278;18.192;2023-07-13T00:04:40;6.80;;;4.60;;
76795;SDS011;65745;50.278;18.192;2023-07-13T00:07:13;7.70;;;4.90;;
76795;SDS011;65745;50.278;18.192;2023-07-13T00:09:49;6.90;;;4.90;;
76795;SDS011;65745;50.278;18.192;2023-07-13T05:28:01;12.50;;;10.00;;
76795;SDS011;65745;50.278;18.192;2023-07-13T05:30:33;12.80;;;10.40;;
76795;SDS011;65745;50.278;18.192;2023-07-13T05:33:05;11.50;;;10.30;;
76795;SDS011;65745;50.278;18.192;2023-07-13T05:35:38;16.30;;;10.20;;
76795;SDS011;65745;50.278;18.192;2023-07-13T05:38:10;11.90;;;8.80;;
76795;SDS011;65745;50.278;18.192;2023-07-13T05:40:44;11.50;;;8.50;;
76795;SDS011;65745;50.278;18.192;2023-07-13T05:43:16;11.50;;;8.50;;
76795;SDS011;65745;50.278;18.192;2023-07-13T05:45:48;15.60;;;8.40;;
76795;SDS011;65745;50.278;18.192;2023-07-13T05:48:21;10.60;;;6.90;;
76795;SDS011;65745;50.278;18.192;2023-07-13T05:50:54;8.30;;;6.90;;
76795;SDS011;65745;50.278;18.192;2023-07-13T05:53:26;7.80;;;6.10;;
76795;SDS011;65745;50.278;18.192;2023-07-13T05:55:58;8.90;;;7.20;;
76795;SDS011;65745;50.278;18.192;2023-07-13T05:58:32;10.30;;;6.50;;
76795;SDS011;65745;50.278;18.192;2023-07-13T06:01:09;8.90;;;7.40;;
76795;SDS011;65745;50.278;18.192;2023-07-13T06:03:44;9.70;;;6.10;;
76795;SDS011;65745;50.278;18.192;2023-07-13T06:06:16;10.70;;;5.60;;
76795;SDS011;65745;50.278;18.192;2023-07-13T06:08:48;9.10;;;5.60;;
76795;SDS011;65745;50.278;18.192;2023-07-13T06:11:21;11.30;;;6.40;;
76795;SDS011;65745;50.278;18.192;2023-07-13T06:13:55;8.30;;;5.70;;
76795;SDS011;65745;50.278;18.192;2023-07-13T06:16:27;9.60;;;5.60;;
76795;SDS011;65745;50.278;18.192;2023-07-13T06:18:59;7.90;;;6.20;;
76795;SDS011;65745;50.278;18.192;2023-07-13T06:21:31;10.80;;;6.60;;
76795;SDS011;65745;50.278;18.192;2023-07-13T06:24:04;8.90;;;6.10;;
76795;SDS011;65745;50.278;18.192;2023-07-13T06:26:37;11.00;;;6.30;;
76795;SDS011;65745;50.278;18.192;2023-07-13T06:29:09;8.40;;;5.60;;
76795;SDS011;65745;50.278;18.192;2023-07-13T06:31:41;9.50;;;6.00;;
76795;SDS011;65745;50.278;18.192;2023-07-13T06:34:13;8.70;;;5.90;;
76795;SDS011;65745;50.278;18.192;2023-07-13T06:36:46;10.00;;;5.60;;
76795;SDS011;65745;50.278;18.192;2023-07-13T06:39:18;8.80;;;6.00;;
76795;SDS011;65745;50.278;18.192;2023-07-13T06:41:50;7.10;;;6.10;;
76795;SDS011;65745;50.278;18.192;2023-07-13T06:44:23;8.70;;;5.60;;
76795;SDS011;65745;50.278;18.192;2023-07-13T06:46:55;10.30;;;6.30;;
76795;SDS011;65745;50.278;18.192;2023-07-13T06:49:27;10.70;;;5.00;;
76795;SDS011;65745;50.278;18.192;2023-07-13T06:51:59;10.20;;;5.00;;
76795;SDS011;65745;50.278;18.192;2023-07-13T06:54:31;8.50;;;5.20;;
76795;SDS011;65745;50.278;18.192;2023-07-13T06:57:04;9.10;;;5.80;;
76795;SDS011;65745;50.278;18.192;2023-07-13T06:59:37;8.70;;;5.60;;
76795;SDS011;65745;50.278;18.192;2023-07-13T07:02:10;7.90;;;5.20;;
76795;SDS011;65745;50.278;18.192;2023-07-13T07:04:42;7.30;;;5.50;;
76795;SDS011;65745;50.278;18.192;2023-07-13T07:07:14;9.10;;;5.00;;
76795;SDS011;65745;50.278;18.192;2023-07-13T07:09:46;7.60;;;4.80;;
76795;SDS011;65745;50.278;18.192;2023-07-13T07:12:18;5.10;;;4.60;;
76795;SDS011;65745;50.278;18.192;2023-07-13T07:14:50;8.70;;;5.40;;
76795;SDS011;65745;50.278;18.192;2023-07-13T07:17:22;6.80;;;5.60;;
76795;SDS011;65745;50.278;18.192;2023-07-13T07:19:55;10.50;;;5.30;;
76795;SDS011;65745;50.278;18.192;2023-07-13T07:22:27;11.50;;;5.10;;
76795;SDS011;65745;50.278;18.192;2023-07-13T07:24:59;8.80;;;5.00;;
76795;SDS011;65745;50.278;18.192;2023-07-13T07:27:31;10.40;;;5.60;;
76795;SDS011;65745;50.278;18.192;2023-07-13T07:30:08;8.30;;;5.80;;
76795;SDS011;65745;50.278;18.192;2023-07-13T07:32:45;8.90;;;5.80;;
76795;SDS011;65745;50.278;18.192;2023-07-13T07:35:21;7.30;;;6.10;;
76795;SDS011;65745;50.278;18.192;2023-07-13T07:37:53;9.10;;;6.20;;
76795;SDS011;65745;50.278;18.192;2023-07-13T07:40:27;8.40;;;6.60;;
76795;SDS011;65745;50.278;18.192;2023-07-13T07:43:02;7.90;;;7.10;;
76795;SDS011;65745;50.278;18.192;2023-07-13T07:45:34;10.30;;;7.10;;
76795;SDS011;65745;50.278;18.192;2023-07-13T07:48:07;9.40;;;7.00;;
76795;SDS011;65745;50.278;18.192;2023-07-13T07:50:39;8.90;;;7.60;;
76795;SDS011;65745;50.278;18.192;2023-07-13T07:53:11;10.60;;;7.80;;
76795;SDS011;65745;50.278;18.192;2023-07-13T07:55:43;10.40;;;7.90;;
76795;SDS011;65745;50.278;18.192;2023-07-13T07:58:19;9.60;;;7.40;;
76795;SDS011;65745;50.278;18.192;2023-07-13T08:00:54;8.80;;;8.00;;
76795;SDS011;65745;50.278;18.192;2023-07-13T08:03:37;10.00;;;8.50;;
76795;SDS011;65745;50.278;18.192;2023-07-13T08:06:12;11.20;;;9.80;;
76795;SDS011;65745;50.278;18.192;2023-07-13T08:09:05;10.40;;;9.10;;
76795;SDS011;65745;50.278;18.192;2023-07-13T08:11:37;10.40;;;9.40;;
76795;SDS011;65745;50.278;18.192;2023-07-13T08:14:12;11.60;;;9.70;;
76795;SDS011;65745;50.278;18.192;2023-07-13T08:16:45;13.00;;;9.70;;
76795;SDS011;65745;50.278;18.192;2023-07-13T08:19:17;12.30;;;10.90;;
76795;SDS011;65745;50.278;18.192;2023-07-13T08:21:49;13.40;;;9.70;;
76795;SDS011;65745;50.278;18.192;2023-07-13T08:24:23;11.60;;;8.90;;
76795;SDS011;65745;50.278;18.192;2023-07-13T08:26:55;9.80;;;8.30;;
76795;SDS011;65745;50.278;18.192;2023-07-13T08:29:28;9.10;;;7.50;;
76795;SDS011;65745;50.278;18.192;2023-07-13T08:32:00;7.30;;;5.50;;
76795;SDS011;65745;50.278;18.192;2023-07-13T08:34:33;5.50;;;5.00;;
76795;SDS011;65745;50.278;18.192;2023-07-13T08:37:06;5.80;;;4.60;;
76795;SDS011;65745;50.278;18.192;2023-07-13T08:39:38;4.90;;;3.60;;
76795;SDS011;65745;50.278;18.192;2023-07-13T08:42:12;3.80;;;3.10;;
76795;SDS011;65745;50.278;18.192;2023-07-13T08:44:54;4.50;;;3.30;;
76795;SDS011;65745;50.278;18.192;2023-07-13T08:47:35;4.60;;;3.50;;
76795;SDS011;65745;50.278;18.192;2023-07-13T08:50:12;8.10;;;3.60;;
76795;SDS011;65745;50.278;18.192;2023-07-13T08:52:47;7.30;;;3.40;;
76795;SDS011;65745;50.278;18.192;2023-07-13T08:55:22;6.10;;;3.30;;
76795;SDS011;65745;50.278;18.192;2023-07-13T08:58:01;5.40;;;3.50;;
76795;SDS011;65745;50.278;18.192;2023-07-13T09:00:43;4.90;;;3.40;;
76795;SDS011;65745;50.278;18.192;2023-07-13T09:03:22;4.60;;;3.30;;
76795;SDS011;65745;50.278;18.192;2023-07-13T09:06:01;5.50;;;3.50;;
76795;SDS011;65745;50.278;18.192;2023-07-13T09:08:38;4.10;;;3.10;;
76795;SDS011;65745;50.278;18.192;2023-07-13T09:11:30;3.80;;;3.30;;
76795;SDS011;65745;50.278;18.192;2023-07-13T09:14:23;7.60;;;3.40;;
76795;SDS011;65745;50.278;18.192;2023-07-13T09:17:03;4.60;;;2.80;;
76795;SDS011;65745;50.278;18.192;2023-07-13T09:19:40;5.80;;;2.60;;
76795;SDS011;65745;50.278;18.192;2023-07-13T09:22:15;4.90;;;2.70;;
76795;SDS011;65745;50.278;18.192;2023-07-13T09:24:55;3.20;;;2.90;;
76795;SDS011;65745;50.278;18.192;2023-07-13T09:27:33;3.90;;;2.90;;
76795;SDS011;65745;50.278;18.192;2023-07-13T09:30:17;4.80;;;3.30;;
76795;SDS011;65745;50.278;18.192;2023-07-13T09:32:55;5.30;;;3.40;;
76795;SDS011;65745;50.278;18.192;2023-07-13T09:35:28;4.30;;;3.10;;
76795;SDS011;65745;50.278;18.192;2023-07-13T09:38:04;4.20;;;3.40;;
76795;SDS011;65745;50.278;18.192;2023-07-13T09:40:47;4.90;;;3.50;;
76795;SDS011;65745;50.278;18.192;2023-07-13T09:43:30;4.00;;;3.60;;
76795;SDS011;65745;50.278;18.192;2023-07-13T09:46:02;4.90;;;3.30;;
76795;SDS011;65745;50.278;18.192;2023-07-13T09:48:35;4.80;;;3.70;;
76795;SDS011;65745;50.278;18.192;2023-07-13T09:51:10;4.40;;;3.00;;
76795;SDS011;65745;50.278;18.192;2023-07-13T09:53:45;5.20;;;3.00;;
76795;SDS011;65745;50.278;18.192;2023-07-13T09:56:21;5.10;;;3.10;;
76795;SDS011;65745;50.278;18.192;2023-07-13T09:58:56;4.40;;;2.60;;
76795;SDS011;65745;50.278;18.192;2023-07-13T10:01:34;3.30;;;2.60;;
76795;SDS011;65745;50.278;18.192;2023-07-13T10:04:12;4.00;;;2.70;;
76795;SDS011;65745;50.278;18.192;2023-07-13T10:06:47;3.40;;;2.70;;
76795;SDS011;65745;50.278;18.192;2023-07-13T10:09:55;4.30;;;3.00;;
76795;SDS011;65745;50.278;18.192;2023-07-13T10:12:30;3.30;;;2.90;;
76795;SDS011;65745;50.278;18.192;2023-07-13T10:15:13;3.80;;;2.70;;
76795;SDS011;65745;50.278;18.192;2023-07-13T10:17:53;5.70;;;2.50;;
76795;SDS011;65745;50.278;18.192;2023-07-13T10:20:27;4.10;;;2.80;;
76795;SDS011;65745;50.278;18.192;2023-07-13T10:23:01;3.30;;;2.30;;
76795;SDS011;65745;50.278;18.192;2023-07-13T10:25:36;4.10;;;2.90;;
76795;SDS011;65745;50.278;18.192;2023-07-13T10:28:25;3.10;;;2.60;;
76795;SDS011;65745;50.278;18.192;2023-07-13T10:31:01;3.40;;;3.00;;
76795;SDS011;65745;50.278;18.192;2023-07-13T10:33:35;5.90;;;3.50;;
76795;SDS011;65745;50.278;18.192;2023-07-13T10:36:11;3.10;;;2.60;;
76795;SDS011;65745;50.278;18.192;2023-07-13T10:38:48;4.00;;;2.70;;
76795;SDS011;65745;50.278;18.192;2023-07-13T10:41:22;3.70;;;2.50;;
76795;SDS011;65745;50.278;18.192;2023-07-13T10:43:58;4.50;;;2.80;;
76795;SDS011;65745;50.278;18.192;2023-07-13T10:46:32;3.30;;;2.60;;
76795;SDS011;65745;50.278;18.192;2023-07-13T10:49:05;3.20;;;2.50;;
76795;SDS011;65745;50.278;18.192;2023-07-13T10:51:41;3.80;;;2.70;;
76795;SDS011;65745;50.278;18.192;2023-07-13T10:54:19;3.80;;;2.70;;
76795;SDS011;65745;50.278;18.192;2023-07-13T10:57:10;4.50;;;2.80;;
76795;SDS011;65745;50.278;18.192;2023-07-13T10:59:49;3.80;;;3.20;;
76795;SDS011;65745;50.278;18.192;2023-07-13T11:02:56;3.50;;;2.20;;
76795;SDS011;65745;50.278;18.192;2023-07-13T11:05:31;3.70;;;2.20;;
76795;SDS011;65745;50.278;18.192;2023-07-13T11:08:12;3.00;;;2.50;;
76795;SDS011;65745;50.278;18.192;2023-07-13T11:10:51;2.90;;;2.50;;
76795;SDS011;65745;50.278;18.192;2023-07-13T11:13:37;4.50;;;2.60;;
76795;SDS011;65745;50.278;18.192;2023-07-13T11:16:34;4.20;;;3.50;;
76795;SDS011;65745;50.278;18.192;2023-07-13T11:22:23;4.90;;;3.80;;
76795;SDS011;65745;50.278;18.192;2023-07-13T11:25:28;5.30;;;3.60;;
76795;SDS011;65745;50.278;18.192;2023-07-13T11:28:07;5.30;;;4.00;;
76795;SDS011;65745;50.278;18.192;2023-07-13T11:30:59;9.70;;;4.80;;
76795;SDS011;65745;50.278;18.192;2023-07-13T11:33:52;5.80;;;5.00;;
76795;SDS011;65745;50.278;18.192;2023-07-13T11:36:36;5.80;;;5.20;;
76795;SDS011;65745;50.278;18.192;2023-07-13T11:39:27;6.60;;;5.80;;
76795;SDS011;65745;50.278;18.192;2023-07-13T11:42:03;6.80;;;5.20;;
76795;SDS011;65745;50.278;18.192;2023-07-13T11:44:43;4.90;;;4.40;;
76795;SDS011;65745;50.278;18.192;2023-07-13T11:47:32;5.20;;;4.20;;
76795;SDS011;65745;50.278;18.192;2023-07-13T11:50:04;4.30;;;3.90;;
76795;SDS011;65745;50.278;18.192;2023-07-13T11:52:48;4.90;;;3.60;;
76795;SDS011;65745;50.278;18.192;2023-07-13T11:55:25;8.00;;;4.40;;
76795;SDS011;65745;50.278;18.192;2023-07-13T11:57:59;5.20;;;3.40;;
76795;SDS011;65745;50.278;18.192;2023-07-13T12:00:33;5.90;;;4.00;;
76795;SDS011;65745;50.278;18.192;2023-07-13T12:03:07;5.90;;;4.70;;
76795;SDS011;65745;50.278;18.192;2023-07-13T12:08:30;6.10;;;4.60;;
76795;SDS011;65745;50.278;18.192;2023-07-13T12:11:11;6.60;;;4.70;;
76795;SDS011;65745;50.278;18.192;2023-07-13T12:13:47;5.00;;;4.50;;
76795;SDS011;65745;50.278;18.192;2023-07-13T12:16:23;5.40;;;4.90;;
76795;SDS011;65745;50.278;18.192;2023-07-13T12:18:59;5.00;;;4.30;;
76795;SDS011;65745;50.278;18.192;2023-07-13T12:21:33;6.20;;;4.50;;
76795;SDS011;65745;50.278;18.192;2023-07-13T12:24:12;4.70;;;3.90;;
76795;SDS011;65745;50.278;18.192;2023-07-13T12:26:49;5.40;;;4.50;;
76795;SDS011;65745;50.278;18.192;2023-07-13T12:29:22;4.80;;;4.20;;
76795;SDS011;65745;50.278;18.192;2023-07-13T12:31:54;4.70;;;4.10;;
76795;SDS011;65745;50.278;18.192;2023-07-13T12:34:27;4.70;;;3.80;;
76795;SDS011;65745;50.278;18.192;2023-07-13T12:37:00;3.60;;;3.30;;
76795;SDS011;65745;50.278;18.192;2023-07-13T12:39:35;4.90;;;3.50;;
76795;SDS011;65745;50.278;18.192;2023-07-13T12:42:17;2.90;;;2.60;;
76795;SDS011;65745;50.278;18.192;2023-07-13T12:44:56;3.80;;;3.20;;
76795;SDS011;65745;50.278;18.192;2023-07-13T12:47:32;4.10;;;3.00;;
76795;SDS011;65745;50.278;18.192;2023-07-13T12:52:50;4.70;;;4.30;;
76795;SDS011;65745;50.278;18.192;2023-07-13T12:55:23;3.70;;;3.20;;
76795;SDS011;65745;50.278;18.192;2023-07-13T12:57:56;4.60;;;3.50;;
76795;SDS011;65745;50.278;18.192;2023-07-13T13:00:31;3.50;;;3.20;;
76795;SDS011;65745;50.278;18.192;2023-07-13T13:03:07;4.10;;;3.30;;
76795;SDS011;65745;50.278;18.192;2023-07-13T13:05:59;4.30;;;3.90;;
76795;SDS011;65745;50.278;18.192;2023-07-13T13:08:34;3.40;;;3.10;;
76795;SDS011;65745;50.278;18.192;2023-07-13T13:11:10;4.10;;;3.10;;
76795;SDS011;65745;50.278;18.192;2023-07-13T13:13:45;4.40;;;4.00;;
76795;SDS011;65745;50.278;18.192;2023-07-13T13:16:20;4.90;;;4.20;;
76795;SDS011;65745;50.278;18.192;2023-07-13T13:18:54;4.90;;;4.40;;
76795;SDS011;65745;50.278;18.192;2023-07-13T13:21:27;4.80;;;4.00;;
76795;SDS011;65745;50.278;18.192;2023-07-13T13:24:00;5.00;;;4.20;;
76795;SDS011;65745;50.278;18.192;2023-07-13T13:26:32;4.40;;;3.90;;
76795;SDS011;65745;50.278;18.192;2023-07-13T13:29:08;5.50;;;3.20;;
76795;SDS011;65745;50.278;18.192;2023-07-13T13:31:45;3.90;;;3.30;;
76795;SDS011;65745;50.278;18.192;2023-07-13T13:34:18;4.90;;;3.50;;
76795;SDS011;65745;50.278;18.192;2023-07-13T13:36:52;5.10;;;3.50;;
76795;SDS011;65745;50.278;18.192;2023-07-13T13:39:29;4.60;;;3.80;;
76795;SDS011;65745;50.278;18.192;2023-07-13T13:42:05;4.00;;;2.80;;
76795;SDS011;65745;50.278;18.192;2023-07-13T13:44:39;3.20;;;2.40;;
76795;SDS011;65745;50.278;18.192;2023-07-13T13:47:20;2.50;;;2.10;;
76795;SDS011;65745;50.278;18.192;2023-07-13T13:49:59;3.20;;;2.60;;
76795;SDS011;65745;50.278;18.192;2023-07-13T13:52:35;3.60;;;2.50;;
76795;SDS011;65745;50.278;18.192;2023-07-13T13:55:12;2.60;;;2.40;;
76795;SDS011;65745;50.278;18.192;2023-07-13T13:57:48;2.40;;;2.20;;
76795;SDS011;65745;50.278;18.192;2023-07-13T14:00:20;2.60;;;2.20;;
76795;SDS011;65745;50.278;18.192;2023-07-13T14:02:53;2.90;;;2.20;;
76795;SDS011;65745;50.278;18.192;2023-07-13T14:05:26;2.80;;;2.10;;
76795;SDS011;65745;50.278;18.192;2023-07-13T14:07:59;3.00;;;2.50;;
76795;SDS011;65745;50.278;18.192;2023-07-13T14:10:31;2.70;;;2.20;;
76795;SDS011;65745;50.278;18.192;2023-07-13T14:13:03;3.50;;;2.60;;
76795;SDS011;65745;50.278;18.192;2023-07-13T14:15:45;2.50;;;2.20;;
76795;SDS011;65745;50.278;18.192;2023-07-13T14:18:17;2.80;;;2.10;;
76795;SDS011;65745;50.278;18.192;2023-07-13T14:20:50;3.90;;;2.30;;
76795;SDS011;65745;50.278;18.192;2023-07-13T14:23:22;2.50;;;2.10;;
76795;SDS011;65745;50.278;18.192;2023-07-13T14:25:54;3.30;;;2.60;;
76795;SDS011;65745;50.278;18.192;2023-07-13T14:28:26;2.80;;;2.40;;
76795;SDS011;65745;50.278;18.192;2023-07-13T14:30:58;3.80;;;2.40;;
76795;SDS011;65745;50.278;18.192;2023-07-13T14:33:31;4.00;;;2.40;;
76795;SDS011;65745;50.278;18.192;2023-07-13T14:36:03;3.00;;;2.00;;
76795;SDS011;65745;50.278;18.192;2023-07-13T14:38:48;2.20;;;1.80;;
76795;SDS011;65745;50.278;18.192;2023-07-13T14:41:20;2.30;;;1.90;;
76795;SDS011;65745;50.278;18.192;2023-07-13T14:43:52;3.60;;;2.30;;
76795;SDS011;65745;50.278;18.192;2023-07-13T14:46:27;2.30;;;1.80;;
76795;SDS011;65745;50.278;18.192;2023-07-13T14:49:02;2.50;;;2.20;;
76795;SDS011;65745;50.278;18.192;2023-07-13T14:51:35;2.60;;;2.20;;
76795;SDS011;65745;50.278;18.192;2023-07-13T14:54:08;3.00;;;2.40;;
76795;SDS011;65745;50.278;18.192;2023-07-13T14:56:41;3.00;;;2.30;;
76795;SDS011;65745;50.278;18.192;2023-07-13T14:59:14;3.00;;;2.20;;
76795;SDS011;65745;50.278;18.192;2023-07-13T15:01:48;2.90;;;2.00;;
76795;SDS011;65745;50.278;18.192;2023-07-13T15:04:21;2.70;;;2.00;;
76795;SDS011;65745;50.278;18.192;2023-07-13T15:06:56;3.10;;;2.20;;
76795;SDS011;65745;50.278;18.192;2023-07-13T15:09:30;3.30;;;2.50;;
76795;SDS011;65745;50.278;18.192;2023-07-13T15:12:03;3.00;;;2.20;;
76795;SDS011;65745;50.278;18.192;2023-07-13T15:14:37;4.20;;;2.30;;
76795;SDS011;65745;50.278;18.192;2023-07-13T15:17:23;4.10;;;2.30;;
76795;SDS011;65745;50.278;18.192;2023-07-13T15:20:02;2.50;;;2.30;;
76795;SDS011;65745;50.278;18.192;2023-07-13T15:22:36;3.30;;;2.30;;
76795;SDS011;65745;50.278;18.192;2023-07-13T15:25:16;3.40;;;2.60;;
76795;SDS011;65745;50.278;18.192;2023-07-13T15:27:50;2.80;;;2.40;;
76795;SDS011;65745;50.278;18.192;2023-07-13T15:30:22;2.90;;;2.50;;
76795;SDS011;65745;50.278;18.192;2023-07-13T15:33:00;3.10;;;2.80;;
76795;SDS011;65745;50.278;18.192;2023-07-13T15:35:40;3.40;;;2.80;;
76795;SDS011;65745;50.278;18.192;2023-07-13T15:38:16;3.60;;;2.60;;
76795;SDS011;65745;50.278;18.192;2023-07-13T15:40:50;2.60;;;2.40;;
76795;SDS011;65745;50.278;18.192;2023-07-13T15:43:23;5.40;;;2.50;;
76795;SDS011;65745;50.278;18.192;2023-07-13T15:45:56;2.90;;;2.60;;
76795;SDS011;65745;50.278;18.192;2023-07-13T15:48:28;3.20;;;2.50;;
76795;SDS011;65745;50.278;18.192;2023-07-13T15:51:02;3.40;;;2.70;;
76795;SDS011;65745;50.278;18.192;2023-07-13T15:53:35;3.20;;;2.70;;
76795;SDS011;65745;50.278;18.192;2023-07-13T15:56:16;6.90;;;3.30;;
76795;SDS011;65745;50.278;18.192;2023-07-13T15:58:51;7.20;;;3.80;;
76795;SDS011;65745;50.278;18.192;2023-07-13T16:01:25;4.40;;;3.10;;
76795;SDS011;65745;50.278;18.192;2023-07-13T16:03:58;4.30;;;3.00;;
76795;SDS011;65745;50.278;18.192;2023-07-13T16:06:32;4.70;;;2.90;;
76795;SDS011;65745;50.278;18.192;2023-07-13T16:09:11;4.20;;;3.10;;
76795;SDS011;65745;50.278;18.192;2023-07-13T16:11:51;3.80;;;2.90;;
76795;SDS011;65745;50.278;18.192;2023-07-13T16:14:26;3.80;;;2.50;;
76795;SDS011;65745;50.278;18.192;2023-07-13T16:16:58;3.80;;;2.50;;
76795;SDS011;65745;50.278;18.192;2023-07-13T16:19:31;3.20;;;2.70;;
76795;SDS011;65745;50.278;18.192;2023-07-13T16:22:03;3.30;;;2.60;;
76795;SDS011;65745;50.278;18.192;2023-07-13T16:24:35;3.40;;;2.80;;
76795;SDS011;65745;50.278;18.192;2023-07-13T16:27:09;4.30;;;2.80;;
76795;SDS011;65745;50.278;18.192;2023-07-13T16:29:42;3.90;;;2.40;;
76795;SDS011;65745;50.278;18.192;2023-07-13T16:32:14;3.80;;;2.70;;
76795;SDS011;65745;50.278;18.192;2023-07-13T16:34:46;3.40;;;2.50;;
76795;SDS011;65745;50.278;18.192;2023-07-13T16:37:19;3.40;;;2.70;;
76795;SDS011;65745;50.278;18.192;2023-07-13T16:39:57;3.30;;;2.40;;
76795;SDS011;65745;50.278;18.192;2023-07-13T16:42:29;4.10;;;2.60;;
76795;SDS011;65745;50.278;18.192;2023-07-13T16:45:03;3.20;;;2.40;;
76795;SDS011;65745;50.278;18.192;2023-07-13T16:47:41;5.10;;;2.40;;
76795;SDS011;65745;50.278;18.192;2023-07-13T16:50:16;3.20;;;2.50;;
76795;SDS011;65745;50.278;18.192;2023-07-13T16:52:51;4.10;;;2.40;;
76795;SDS011;65745;50.278;18.192;2023-07-13T16:55:24;2.70;;;2.30;;
76795;SDS011;65745;50.278;18.192;2023-07-13T16:57:58;3.10;;;2.50;;
76795;SDS011;65745;50.278;18.192;2023-07-13T17:00:32;2.90;;;2.40;;
76795;SDS011;65745;50.278;18.192;2023-07-13T17:03:06;3.50;;;2.60;;
76795;SDS011;65745;50.278;18.192;2023-07-13T17:05:42;3.70;;;2.90;;
76795;SDS011;65745;50.278;18.192;2023-07-13T17:08:17;3.20;;;2.40;;
76795;SDS011;65745;50.278;18.192;2023-07-13T17:10:53;4.10;;;2.60;;
76795;SDS011;65745;50.278;18.192;2023-07-13T17:13:28;3.60;;;2.70;;
76795;SDS011;65745;50.278;18.192;2023-07-13T17:16:00;3.10;;;2.70;;
76795;SDS011;65745;50.278;18.192;2023-07-13T17:18:34;3.70;;;2.80;;
76795;SDS011;65745;50.278;18.192;2023-07-13T17:21:06;4.40;;;3.00;;
76795;SDS011;65745;50.278;18.192;2023-07-13T17:23:44;5.10;;;3.20;;
76795;SDS011;65745;50.278;18.192;2023-07-13T17:26:16;3.90;;;3.10;;
76795;SDS011;65745;50.278;18.192;2023-07-13T17:28:48;3.60;;;3.20;;
76795;SDS011;65745;50.278;18.192;2023-07-13T17:31:21;3.90;;;3.00;;
76795;SDS011;65745;50.278;18.192;2023-07-13T17:33:53;3.90;;;2.90;;
76795;SDS011;65745;50.278;18.192;2023-07-13T17:36:25;3.40;;;2.50;;
76795;SDS011;65745;50.278;18.192;2023-07-13T17:38:58;4.30;;;2.80;;
76795;SDS011;65745;50.278;18.192;2023-07-13T17:41:33;4.80;;;2.70;;
76795;SDS011;65745;50.278;18.192;2023-07-13T17:44:05;3.20;;;2.80;;
76795;SDS011;65745;50.278;18.192;2023-07-13T17:46:37;3.80;;;3.40;;
76795;SDS011;65745;50.278;18.192;2023-07-13T17:49:15;4.20;;;3.60;;
76795;SDS011;65745;50.278;18.192;2023-07-13T17:51:54;4.30;;;3.90;;
76795;SDS011;65745;50.278;18.192;2023-07-13T17:54:27;3.80;;;3.50;;
76795;SDS011;65745;50.278;18.192;2023-07-13T17:56:59;3.80;;;3.40;;
76795;SDS011;65745;50.278;18.192;2023-07-13T17:59:31;4.10;;;3.70;;
76795;SDS011;65745;50.278;18.192;2023-07-13T18:02:08;4.00;;;3.60;;
76795;SDS011;65745;50.278;18.192;2023-07-13T18:04:46;4.90;;;4.40;;
76795;SDS011;65745;50.278;18.192;2023-07-13T18:07:19;5.80;;;4.90;;
76795;SDS011;65745;50.278;18.192;2023-07-13T18:09:57;7.60;;;5.00;;
76795;SDS011;65745;50.278;18.192;2023-07-13T18:12:29;5.00;;;4.50;;
76795;SDS011;65745;50.278;18.192;2023-07-13T18:15:04;5.20;;;4.70;;
76795;SDS011;65745;50.278;18.192;2023-07-13T18:17:38;6.10;;;4.70;;
76795;SDS011;65745;50.278;18.192;2023-07-13T18:20:11;5.40;;;4.90;;
76795;SDS011;65745;50.278;18.192;2023-07-13T18:22:47;7.10;;;5.10;;
76795;SDS011;65745;50.278;18.192;2023-07-13T18:25:21;5.20;;;4.80;;
76795;SDS011;65745;50.278;18.192;2023-07-13T18:27:54;5.70;;;5.20;;
76795;SDS011;65745;50.278;18.192;2023-07-13T18:30:27;5.20;;;4.80;;
76795;SDS011;65745;50.278;18.192;2023-07-13T18:32:59;5.70;;;5.30;;
76795;SDS011;65745;50.278;18.192;2023-07-13T18:35:31;7.00;;;5.90;;
76795;SDS011;65745;50.278;18.192;2023-07-13T18:38:08;6.40;;;5.90;;
76795;SDS011;65745;50.278;18.192;2023-07-13T18:43:20;6.30;;;5.80;;
76795;SDS011;65745;50.278;18.192;2023-07-13T18:45:54;6.30;;;5.70;;
76795;SDS011;65745;50.278;18.192;2023-07-13T18:48:30;6.90;;;6.30;;
76795;SDS011;65745;50.278;18.192;2023-07-13T18:51:04;7.00;;;6.40;;
76795;SDS011;65745;50.278;18.192;2023-07-13T18:53:40;7.40;;;6.70;;
76795;SDS011;65745;50.278;18.192;2023-07-13T18:56:13;7.10;;;6.60;;
76795;SDS011;65745;50.278;18.192;2023-07-13T18:58:45;7.40;;;6.70;;
76795;SDS011;65745;50.278;18.192;2023-07-13T19:01:22;7.30;;;6.70;;
76795;SDS011;65745;50.278;18.192;2023-07-13T19:03:58;7.80;;;7.10;;
76795;SDS011;65745;50.278;18.192;2023-07-13T19:06:32;7.80;;;7.10;;
76795;SDS011;65745;50.278;18.192;2023-07-13T19:09:08;7.90;;;7.20;;
76795;SDS011;65745;50.278;18.192;2023-07-13T19:11:41;7.70;;;7.10;;
76795;SDS011;65745;50.278;18.192;2023-07-13T19:14:15;8.90;;;8.10;;
76795;SDS011;65745;50.278;18.192;2023-07-13T19:16:52;8.60;;;7.90;;
76795;SDS011;65745;50.278;18.192;2023-07-13T19:19:27;8.70;;;7.90;;
76795;SDS011;65745;50.278;18.192;2023-07-13T19:22:00;8.80;;;8.00;;
76795;SDS011;65745;50.278;18.192;2023-07-13T19:24:36;8.60;;;7.80;;
76795;SDS011;65745;50.278;18.192;2023-07-13T19:27:10;8.90;;;8.10;;
76795;SDS011;65745;50.278;18.192;2023-07-13T19:29:44;8.60;;;7.70;;
76795;SDS011;65745;50.278;18.192;2023-07-13T19:32:17;8.90;;;8.00;;
76795;SDS011;65745;50.278;18.192;2023-07-13T19:34:51;10.50;;;9.50;;
76795;SDS011;65745;50.278;18.192;2023-07-13T19:37:26;10.30;;;8.10;;
76795;SDS011;65745;50.278;18.192;2023-07-13T19:39:58;11.50;;;10.40;;
76795;SDS011;65745;50.278;18.192;2023-07-13T19:42:34;10.20;;;9.40;;
76795;SDS011;65745;50.278;18.192;2023-07-13T19:45:16;9.50;;;8.70;;
76795;SDS011;65745;50.278;18.192;2023-07-13T19:47:52;9.50;;;8.60;;
76795;SDS011;65745;50.278;18.192;2023-07-13T19:50:26;10.10;;;9.10;;
76795;SDS011;65745;50.278;18.192;2023-07-13T19:53:04;9.50;;;8.60;;
76795;SDS011;65745;50.278;18.192;2023-07-13T19:55:45;9.60;;;8.70;;
76795;SDS011;65745;50.278;18.192;2023-07-13T19:58:19;9.70;;;8.60;;
76795;SDS011;65745;50.278;18.192;2023-07-13T20:00:52;9.90;;;9.00;;
76795;SDS011;65745;50.278;18.192;2023-07-13T20:03:25;9.60;;;8.60;;
76795;SDS011;65745;50.278;18.192;2023-07-13T20:05:58;10.40;;;7.90;;
76795;SDS011;65745;50.278;18.192;2023-07-13T20:08:31;9.90;;;9.00;;
76795;SDS011;65745;50.278;18.192;2023-07-13T20:11:04;9.50;;;8.40;;
76795;SDS011;65745;50.278;18.192;2023-07-13T20:13:39;10.50;;;9.10;;
76795;SDS011;65745;50.278;18.192;2023-07-13T20:16:12;12.80;;;9.40;;
76795;SDS011;65745;50.278;18.192;2023-07-13T20:18:45;9.90;;;9.00;;
76795;SDS011;65745;50.278;18.192;2023-07-13T20:21:20;10.30;;;8.90;;
76795;SDS011;65745;50.278;18.192;2023-07-13T20:23:54;9.30;;;8.50;;
76795;SDS011;65745;50.278;18.192;2023-07-13T20:26:27;10.10;;;9.00;;
76795;SDS011;65745;50.278;18.192;2023-07-13T20:29:00;11.10;;;9.90;;
76795;SDS011;65745;50.278;18.192;2023-07-13T20:31:36;10.50;;;9.50;;
76795;SDS011;65745;50.278;18.192;2023-07-13T20:34:13;9.00;;;8.20;;
76795;SDS011;65745;50.278;18.192;2023-07-13T20:36:54;10.40;;;8.00;;
76795;SDS011;65745;50.278;18.192;2023-07-13T20:39:28;10.60;;;8.50;;
76795;SDS011;65745;50.278;18.192;2023-07-13T20:42:01;12.20;;;9.30;;
76795;SDS011;65745;50.278;18.192;2023-07-13T20:44:39;9.70;;;8.70;;
76795;SDS011;65745;50.278;18.192;2023-07-13T20:47:14;10.10;;;8.40;;
76795;SDS011;65745;50.278;18.192;2023-07-13T20:49:50;14.30;;;10.40;;